sensor_id;sensor_type;location;lat;lon;timestamp;P1;durP1;ratioP1;P2;durP2;ratioP2
18340;SDS011;9296;48.084;16.352;2023-04-24T00:01:27;5.57;;;4.80;;
18340;SDS011;9296;48.084;16.352;2023-04-24T00:03:56;5.85;;;4.75;;
18340;SDS011;9296;48.084;16.352;2023-04-24T00:06:24;6.50;;;4.78;;
18340;SDS011;9296;48.084;16.352;2023-04-24T00:12:01;5.97;;;4.90;;
18340;SDS011;9296;48.084;16.352;2023-04-24T00:14:29;5.75;;;4.53;;
18340;SDS011;9296;48.084;16.352;2023-04-24T00:16:56;7.88;;;5.03;;
18340;SDS011;9296;48.084;16.352;2023-04-24T00:19:25;5.57;;;4.75;;
18340;SDS011;9296;48.084;16.352;2023-04-24T00:21:52;5.82;;;4.85;;
18340;SDS011;9296;48.084;16.352;2023-04-24T00:27:23;8.80;;;4.88;;
18340;SDS011;9296;48.084;16.352;2023-04-24T00:29:50;6.60;;;5.07;;
18340;SDS011;9296;48.084;16.352;2023-04-24T00:32:17;6.05;;;4.57;;
18340;SDS011;9296;48.084;16.352;2023-04-24T00:34:46;5.78;;;4.88;;
18340;SDS011;9296;48.084;16.352;2023-04-24T00:37:13;9.32;;;5.35;;
18340;SDS011;9296;48.084;16.352;2023-04-24T00:39:40;6.85;;;5.50;;
18340;SDS011;9296;48.084;16.352;2023-04-24T00:42:08;5.97;;;4.88;;
18340;SDS011;9296;48.084;16.352;2023-04-24T00:44:36;8.50;;;5.43;;
18340;SDS011;9296;48.084;16.352;2023-04-24T00:47:03;6.32;;;5.00;;
18340;SDS011;9296;48.084;16.352;2023-04-24T00:49:30;7.65;;;5.10;;
18340;SDS011;9296;48.084;16.352;2023-04-24T00:51:59;6.70;;;5.20;;
18340;SDS011;9296;48.084;16.352;2023-04-24T00:57:31;6.55;;;4.78;;
18340;SDS011;9296;48.084;16.352;2023-04-24T00:59:58;6.05;;;4.97;;
18340;SDS011;9296;48.084;16.352;2023-04-24T01:02:25;6.45;;;5.00;;
18340;SDS011;9296;48.084;16.352;2023-04-24T01:04:54;7.10;;;5.32;;
18340;SDS011;9296;48.084;16.352;2023-04-24T01:13:30;6.43;;;5.05;;
18340;SDS011;9296;48.084;16.352;2023-04-24T01:15:57;7.65;;;5.10;;
18340;SDS011;9296;48.084;16.352;2023-04-24T01:18:25;6.53;;;5.18;;
18340;SDS011;9296;48.084;16.352;2023-04-24T01:20:53;6.65;;;5.75;;
18340;SDS011;9296;48.084;16.352;2023-04-24T01:26:43;8.35;;;5.80;;
18340;SDS011;9296;48.084;16.352;2023-04-24T01:29:10;8.00;;;5.93;;
18340;SDS011;9296;48.084;16.352;2023-04-24T01:31:37;8.18;;;6.15;;
18340;SDS011;9296;48.084;16.352;2023-04-24T01:34:05;8.25;;;6.00;;
18340;SDS011;9296;48.084;16.352;2023-04-24T01:36:33;7.57;;;5.60;;
18340;SDS011;9296;48.084;16.352;2023-04-24T01:39:01;9.38;;;6.13;;
18340;SDS011;9296;48.084;16.352;2023-04-24T01:41:29;8.40;;;6.35;;
18340;SDS011;9296;48.084;16.352;2023-04-24T01:43:58;9.20;;;6.20;;
18340;SDS011;9296;48.084;16.352;2023-04-24T01:46:25;7.45;;;5.75;;
18340;SDS011;9296;48.084;16.352;2023-04-24T01:48:53;7.30;;;5.88;;
18340;SDS011;9296;48.084;16.352;2023-04-24T01:51:21;8.10;;;5.35;;
18340;SDS011;9296;48.084;16.352;2023-04-24T01:56:51;6.78;;;5.50;;
18340;SDS011;9296;48.084;16.352;2023-04-24T01:59:20;7.45;;;5.65;;
18340;SDS011;9296;48.084;16.352;2023-04-24T02:01:47;7.38;;;5.75;;
18340;SDS011;9296;48.084;16.352;2023-04-24T02:04:14;7.10;;;5.57;;
18340;SDS011;9296;48.084;16.352;2023-04-24T02:06:41;8.07;;;5.47;;
18340;SDS011;9296;48.084;16.352;2023-04-24T02:11:56;6.30;;;5.65;;
18340;SDS011;9296;48.084;16.352;2023-04-24T02:14:24;7.18;;;5.55;;
18340;SDS011;9296;48.084;16.352;2023-04-24T02:16:52;7.63;;;5.75;;
18340;SDS011;9296;48.084;16.352;2023-04-24T02:19:19;9.32;;;5.47;;
18340;SDS011;9296;48.084;16.352;2023-04-24T02:21:46;6.35;;;5.40;;
18340;SDS011;9296;48.084;16.352;2023-04-24T02:27:17;5.95;;;4.95;;
18340;SDS011;9296;48.084;16.352;2023-04-24T02:29:46;5.97;;;4.63;;
18340;SDS011;9296;48.084;16.352;2023-04-24T02:32:13;5.55;;;4.70;;
18340;SDS011;9296;48.084;16.352;2023-04-24T02:34:41;5.43;;;4.25;;
18340;SDS011;9296;48.084;16.352;2023-04-24T02:37:08;5.53;;;4.70;;
18340;SDS011;9296;48.084;16.352;2023-04-24T02:42:21;5.53;;;4.53;;
18340;SDS011;9296;48.084;16.352;2023-04-24T02:44:49;5.60;;;4.10;;
18340;SDS011;9296;48.084;16.352;2023-04-24T02:47:16;5.88;;;4.35;;
18340;SDS011;9296;48.084;16.352;2023-04-24T02:49:44;7.00;;;3.80;;
18340;SDS011;9296;48.084;16.352;2023-04-24T02:52:11;4.70;;;4.00;;
18340;SDS011;9296;48.084;16.352;2023-04-24T02:54:38;8.18;;;4.20;;
18340;SDS011;9296;48.084;16.352;2023-04-24T02:57:05;6.03;;;4.75;;
18340;SDS011;9296;48.084;16.352;2023-04-24T02:59:32;6.00;;;4.25;;
18340;SDS011;9296;48.084;16.352;2023-04-24T03:02:01;5.50;;;4.30;;
18340;SDS011;9296;48.084;16.352;2023-04-24T03:04:28;4.18;;;3.78;;
18340;SDS011;9296;48.084;16.352;2023-04-24T03:06:56;5.93;;;4.03;;
18340;SDS011;9296;48.084;16.352;2023-04-24T03:09:24;5.45;;;4.10;;
18340;SDS011;9296;48.084;16.352;2023-04-24T03:11:51;4.88;;;3.75;;
18340;SDS011;9296;48.084;16.352;2023-04-24T03:14:18;5.22;;;3.90;;
18340;SDS011;9296;48.084;16.352;2023-04-24T03:16:45;5.07;;;4.00;;
18340;SDS011;9296;48.084;16.352;2023-04-24T03:19:14;5.18;;;4.35;;
18340;SDS011;9296;48.084;16.352;2023-04-24T03:21:41;6.57;;;4.10;;
18340;SDS011;9296;48.084;16.352;2023-04-24T03:24:26;5.35;;;4.40;;
18340;SDS011;9296;48.084;16.352;2023-04-24T03:26:54;5.93;;;3.72;;
18340;SDS011;9296;48.084;16.352;2023-04-24T03:29:21;7.55;;;4.60;;
18340;SDS011;9296;48.084;16.352;2023-04-24T03:31:49;4.50;;;3.95;;
18340;SDS011;9296;48.084;16.352;2023-04-24T03:34:17;5.43;;;4.05;;
18340;SDS011;9296;48.084;16.352;2023-04-24T03:36:44;8.40;;;4.22;;
18340;SDS011;9296;48.084;16.352;2023-04-24T03:39:13;6.00;;;4.10;;
18340;SDS011;9296;48.084;16.352;2023-04-24T03:41:40;4.95;;;3.78;;
18340;SDS011;9296;48.084;16.352;2023-04-24T03:44:07;6.90;;;4.10;;
18340;SDS011;9296;48.084;16.352;2023-04-24T03:46:35;4.93;;;3.78;;
18340;SDS011;9296;48.084;16.352;2023-04-24T03:49:02;8.82;;;4.03;;
18340;SDS011;9296;48.084;16.352;2023-04-24T03:51:30;4.97;;;3.78;;
18340;SDS011;9296;48.084;16.352;2023-04-24T03:53:57;6.63;;;4.05;;
18340;SDS011;9296;48.084;16.352;2023-04-24T03:56:25;4.38;;;3.85;;
18340;SDS011;9296;48.084;16.352;2023-04-24T03:58:52;4.95;;;3.80;;
18340;SDS011;9296;48.084;16.352;2023-04-24T04:01:19;5.03;;;3.90;;
18340;SDS011;9296;48.084;16.352;2023-04-24T04:03:46;4.55;;;3.78;;
18340;SDS011;9296;48.084;16.352;2023-04-24T04:06:13;5.50;;;3.92;;
18340;SDS011;9296;48.084;16.352;2023-04-24T04:08:42;6.20;;;3.63;;
18340;SDS011;9296;48.084;16.352;2023-04-24T04:11:10;4.18;;;3.22;;
18340;SDS011;9296;48.084;16.352;2023-04-24T04:13:37;5.00;;;3.63;;
18340;SDS011;9296;48.084;16.352;2023-04-24T04:16:04;6.32;;;3.40;;
18340;SDS011;9296;48.084;16.352;2023-04-24T04:18:32;4.07;;;3.67;;
18340;SDS011;9296;48.084;16.352;2023-04-24T04:20:59;4.90;;;3.50;;
18340;SDS011;9296;48.084;16.352;2023-04-24T04:23:46;4.32;;;3.50;;
18340;SDS011;9296;48.084;16.352;2023-04-24T04:26:14;4.20;;;3.15;;
18340;SDS011;9296;48.084;16.352;2023-04-24T04:28:41;3.80;;;3.20;;
18340;SDS011;9296;48.084;16.352;2023-04-24T04:31:09;4.32;;;3.13;;
18340;SDS011;9296;48.084;16.352;2023-04-24T04:33:37;6.35;;;3.30;;
18340;SDS011;9296;48.084;16.352;2023-04-24T04:36:05;4.95;;;2.97;;
18340;SDS011;9296;48.084;16.352;2023-04-24T04:38:33;3.53;;;2.92;;
18340;SDS011;9296;48.084;16.352;2023-04-24T04:41:03;3.67;;;2.90;;
18340;SDS011;9296;48.084;16.352;2023-04-24T04:43:30;3.22;;;2.72;;
18340;SDS011;9296;48.084;16.352;2023-04-24T04:45:59;3.08;;;2.72;;
18340;SDS011;9296;48.084;16.352;2023-04-24T04:48:28;3.20;;;2.80;;
18340;SDS011;9296;48.084;16.352;2023-04-24T04:50:56;3.92;;;3.13;;
18340;SDS011;9296;48.084;16.352;2023-04-24T04:59:31;4.10;;;2.90;;
18340;SDS011;9296;48.084;16.352;2023-04-24T05:01:59;3.80;;;2.70;;
18340;SDS011;9296;48.084;16.352;2023-04-24T05:04:26;3.22;;;2.60;;
18340;SDS011;9296;48.084;16.352;2023-04-24T05:06:53;5.03;;;3.15;;
18340;SDS011;9296;48.084;16.352;2023-04-24T05:12:23;3.42;;;2.70;;
18340;SDS011;9296;48.084;16.352;2023-04-24T05:14:52;3.60;;;2.60;;
18340;SDS011;9296;48.084;16.352;2023-04-24T05:17:20;6.18;;;2.60;;
18340;SDS011;9296;48.084;16.352;2023-04-24T05:19:47;2.85;;;2.53;;
18340;SDS011;9296;48.084;16.352;2023-04-24T05:22:14;4.00;;;2.50;;
18340;SDS011;9296;48.084;16.352;2023-04-24T05:27:47;3.08;;;2.53;;
18340;SDS011;9296;48.084;16.352;2023-04-24T05:30:15;3.42;;;2.40;;
18340;SDS011;9296;48.084;16.352;2023-04-24T05:32:43;3.00;;;2.70;;
18340;SDS011;9296;48.084;16.352;2023-04-24T05:35:10;3.45;;;2.55;;
18340;SDS011;9296;48.084;16.352;2023-04-24T05:37:37;3.70;;;2.80;;
18340;SDS011;9296;48.084;16.352;2023-04-24T05:43:07;3.40;;;3.10;;
18340;SDS011;9296;48.084;16.352;2023-04-24T05:45:36;4.35;;;2.90;;
18340;SDS011;9296;48.084;16.352;2023-04-24T05:48:03;3.53;;;3.10;;
18340;SDS011;9296;48.084;16.352;2023-04-24T05:50:31;3.33;;;2.65;;
18340;SDS011;9296;48.084;16.352;2023-04-24T05:52:58;3.08;;;2.70;;
18340;SDS011;9296;48.084;16.352;2023-04-24T05:55:27;2.58;;;2.38;;
18340;SDS011;9296;48.084;16.352;2023-04-24T05:57:54;3.17;;;2.75;;
18340;SDS011;9296;48.084;16.352;2023-04-24T06:00:21;2.95;;;2.65;;
18340;SDS011;9296;48.084;16.352;2023-04-24T06:02:50;2.78;;;2.58;;
18340;SDS011;9296;48.084;16.352;2023-04-24T06:05:17;2.42;;;2.22;;
18340;SDS011;9296;48.084;16.352;2023-04-24T06:07:45;2.47;;;2.28;;
18340;SDS011;9296;48.084;16.352;2023-04-24T06:10:31;3.00;;;2.17;;
18340;SDS011;9296;48.084;16.352;2023-04-24T06:12:58;2.75;;;2.20;;
18340;SDS011;9296;48.084;16.352;2023-04-24T06:15:27;2.33;;;1.90;;
18340;SDS011;9296;48.084;16.352;2023-04-24T06:17:55;2.00;;;1.80;;
18340;SDS011;9296;48.084;16.352;2023-04-24T06:20:23;3.42;;;2.00;;
18340;SDS011;9296;48.084;16.352;2023-04-24T06:22:50;1.92;;;1.60;;
18340;SDS011;9296;48.084;16.352;2023-04-24T06:25:17;2.63;;;1.65;;
18340;SDS011;9296;48.084;16.352;2023-04-24T06:27:45;5.28;;;1.90;;
18340;SDS011;9296;48.084;16.352;2023-04-24T06:30:12;2.13;;;1.77;;
18340;SDS011;9296;48.084;16.352;2023-04-24T06:32:39;2.90;;;1.77;;
18340;SDS011;9296;48.084;16.352;2023-04-24T06:35:08;2.33;;;1.63;;
18340;SDS011;9296;48.084;16.352;2023-04-24T06:37:37;1.75;;;1.40;;
18340;SDS011;9296;48.084;16.352;2023-04-24T06:40:05;2.75;;;1.60;;
18340;SDS011;9296;48.084;16.352;2023-04-24T06:42:32;2.30;;;1.58;;
18340;SDS011;9296;48.084;16.352;2023-04-24T06:45:00;1.95;;;1.40;;
18340;SDS011;9296;48.084;16.352;2023-04-24T06:47:27;2.35;;;1.40;;
18340;SDS011;9296;48.084;16.352;2023-04-24T06:49:54;3.15;;;1.40;;
18340;SDS011;9296;48.084;16.352;2023-04-24T06:52:23;1.42;;;1.10;;
18340;SDS011;9296;48.084;16.352;2023-04-24T06:57:37;1.50;;;1.38;;
18340;SDS011;9296;48.084;16.352;2023-04-24T07:00:04;1.40;;;1.10;;
18340;SDS011;9296;48.084;16.352;2023-04-24T07:02:34;1.77;;;1.15;;
18340;SDS011;9296;48.084;16.352;2023-04-24T07:05:02;2.08;;;1.30;;
18340;SDS011;9296;48.084;16.352;2023-04-24T07:07:31;2.47;;;1.10;;
18340;SDS011;9296;48.084;16.352;2023-04-24T07:13:03;1.25;;;1.10;;
18340;SDS011;9296;48.084;16.352;2023-04-24T07:15:31;1.40;;;1.30;;
18340;SDS011;9296;48.084;16.352;2023-04-24T07:17:59;2.67;;;1.30;;
18340;SDS011;9296;48.084;16.352;2023-04-24T07:20:26;1.65;;;1.30;;
18340;SDS011;9296;48.084;16.352;2023-04-24T07:22:54;2.50;;;1.13;;
18340;SDS011;9296;48.084;16.352;2023-04-24T07:28:25;3.05;;;1.05;;
18340;SDS011;9296;48.084;16.352;2023-04-24T07:30:56;1.42;;;1.13;;
18340;SDS011;9296;48.084;16.352;2023-04-24T07:33:23;2.83;;;1.13;;
18340;SDS011;9296;48.084;16.352;2023-04-24T07:35:50;1.13;;;1.02;;
18340;SDS011;9296;48.084;16.352;2023-04-24T07:38:37;1.00;;;0.90;;
18340;SDS011;9296;48.084;16.352;2023-04-24T07:41:04;1.55;;;1.00;;
18340;SDS011;9296;48.084;16.352;2023-04-24T07:43:32;1.85;;;1.10;;
18340;SDS011;9296;48.084;16.352;2023-04-24T07:45:59;2.58;;;1.25;;
18340;SDS011;9296;48.084;16.352;2023-04-24T07:48:26;1.35;;;1.10;;
18340;SDS011;9296;48.084;16.352;2023-04-24T07:50:53;1.00;;;0.90;;
18340;SDS011;9296;48.084;16.352;2023-04-24T07:56:25;1.35;;;1.10;;
18340;SDS011;9296;48.084;16.352;2023-04-24T07:58:56;1.30;;;1.20;;
18340;SDS011;9296;48.084;16.352;2023-04-24T08:01:23;1.38;;;1.20;;
18340;SDS011;9296;48.084;16.352;2023-04-24T08:03:50;1.90;;;1.20;;
18340;SDS011;9296;48.084;16.352;2023-04-24T08:06:17;2.47;;;1.25;;
18340;SDS011;9296;48.084;16.352;2023-04-24T08:11:33;1.48;;;1.38;;
18340;SDS011;9296;48.084;16.352;2023-04-24T08:14:00;2.75;;;1.45;;
18340;SDS011;9296;48.084;16.352;2023-04-24T08:16:27;2.03;;;1.52;;
18340;SDS011;9296;48.084;16.352;2023-04-24T08:18:55;1.73;;;1.40;;
18340;SDS011;9296;48.084;16.352;2023-04-24T08:21:22;1.75;;;1.30;;
18340;SDS011;9296;48.084;16.352;2023-04-24T08:23:52;1.40;;;1.23;;
18340;SDS011;9296;48.084;16.352;2023-04-24T08:26:19;2.03;;;1.17;;
18340;SDS011;9296;48.084;16.352;2023-04-24T08:28:48;1.30;;;1.05;;
18340;SDS011;9296;48.084;16.352;2023-04-24T08:31:15;1.50;;;1.20;;
18340;SDS011;9296;48.084;16.352;2023-04-24T08:33:42;1.92;;;1.17;;
18340;SDS011;9296;48.084;16.352;2023-04-24T08:36:10;1.30;;;1.10;;
18340;SDS011;9296;48.084;16.352;2023-04-24T08:38:38;2.85;;;1.20;;
18340;SDS011;9296;48.084;16.352;2023-04-24T08:41:05;2.03;;;1.10;;
18340;SDS011;9296;48.084;16.352;2023-04-24T08:43:33;1.70;;;1.33;;
18340;SDS011;9296;48.084;16.352;2023-04-24T08:46:03;1.98;;;1.30;;
18340;SDS011;9296;48.084;16.352;2023-04-24T08:48:30;2.38;;;1.38;;
18340;SDS011;9296;48.084;16.352;2023-04-24T08:50:58;1.55;;;0.88;;
18340;SDS011;9296;48.084;16.352;2023-04-24T08:53:26;2.20;;;1.20;;
18340;SDS011;9296;48.084;16.352;2023-04-24T08:55:54;1.10;;;1.00;;
18340;SDS011;9296;48.084;16.352;2023-04-24T08:58:21;2.00;;;1.23;;
18340;SDS011;9296;48.084;16.352;2023-04-24T09:00:49;1.02;;;0.93;;
18340;SDS011;9296;48.084;16.352;2023-04-24T09:03:18;1.00;;;0.90;;
18340;SDS011;9296;48.084;16.352;2023-04-24T09:05:46;3.08;;;1.15;;
18340;SDS011;9296;48.084;16.352;2023-04-24T09:08:14;0.88;;;0.80;;
18340;SDS011;9296;48.084;16.352;2023-04-24T09:10:42;1.90;;;0.73;;
18340;SDS011;9296;48.084;16.352;2023-04-24T09:13:10;0.70;;;0.70;;
18340;SDS011;9296;48.084;16.352;2023-04-24T09:15:37;1.40;;;0.70;;
18340;SDS011;9296;48.084;16.352;2023-04-24T09:18:05;0.60;;;0.50;;
18340;SDS011;9296;48.084;16.352;2023-04-24T09:20:34;0.70;;;0.60;;
18340;SDS011;9296;48.084;16.352;2023-04-24T09:23:01;0.57;;;0.50;;
18340;SDS011;9296;48.084;16.352;2023-04-24T09:25:30;0.77;;;0.60;;
18340;SDS011;9296;48.084;16.352;2023-04-24T09:28:00;0.60;;;0.60;;
18340;SDS011;9296;48.084;16.352;2023-04-24T09:30:27;0.80;;;0.57;;
18340;SDS011;9296;48.084;16.352;2023-04-24T09:33:09;0.65;;;0.40;;
18340;SDS011;9296;48.084;16.352;2023-04-24T09:35:39;0.73;;;0.50;;
18340;SDS011;9296;48.084;16.352;2023-04-24T09:38:07;1.00;;;0.57;;
18340;SDS011;9296;48.084;16.352;2023-04-24T09:40:34;0.60;;;0.60;;
18340;SDS011;9296;48.084;16.352;2023-04-24T09:43:01;1.48;;;0.50;;
18340;SDS011;9296;48.084;16.352;2023-04-24T09:45:35;2.47;;;0.60;;
18340;SDS011;9296;48.084;16.352;2023-04-24T09:48:02;11.77;;;1.35;;
18340;SDS011;9296;48.084;16.352;2023-04-24T09:50:30;5.45;;;1.10;;
18340;SDS011;9296;48.084;16.352;2023-04-24T09:53:01;1.63;;;0.57;;
18340;SDS011;9296;48.084;16.352;2023-04-24T09:58:31;1.08;;;0.40;;
18340;SDS011;9296;48.084;16.352;2023-04-24T10:00:59;0.65;;;0.40;;
18340;SDS011;9296;48.084;16.352;2023-04-24T10:03:26;0.47;;;0.35;;
18340;SDS011;9296;48.084;16.352;2023-04-24T10:05:58;0.93;;;0.50;;
18340;SDS011;9296;48.084;16.352;2023-04-24T10:08:26;0.52;;;0.45;;
18340;SDS011;9296;48.084;16.352;2023-04-24T10:14:03;0.75;;;0.50;;
18340;SDS011;9296;48.084;16.352;2023-04-24T10:16:30;2.35;;;0.40;;
18340;SDS011;9296;48.084;16.352;2023-04-24T10:18:58;0.70;;;0.70;;
18340;SDS011;9296;48.084;16.352;2023-04-24T10:21:26;0.50;;;0.50;;
18340;SDS011;9296;48.084;16.352;2023-04-24T10:26:58;0.85;;;0.50;;
18340;SDS011;9296;48.084;16.352;2023-04-24T10:29:26;0.70;;;0.50;;
18340;SDS011;9296;48.084;16.352;2023-04-24T10:31:54;1.00;;;0.63;;
18340;SDS011;9296;48.084;16.352;2023-04-24T10:34:21;0.60;;;0.60;;
18340;SDS011;9296;48.084;16.352;2023-04-24T10:36:50;0.40;;;0.40;;
18340;SDS011;9296;48.084;16.352;2023-04-24T10:42:23;0.60;;;0.50;;
18340;SDS011;9296;48.084;16.352;2023-04-24T10:44:50;1.65;;;0.70;;
18340;SDS011;9296;48.084;16.352;2023-04-24T10:47:17;0.55;;;0.55;;
18340;SDS011;9296;48.084;16.352;2023-04-24T10:49:44;1.70;;;0.57;;
18340;SDS011;9296;48.084;16.352;2023-04-24T10:52:12;1.67;;;0.50;;
18340;SDS011;9296;48.084;16.352;2023-04-24T10:54:42;0.93;;;0.55;;
18340;SDS011;9296;48.084;16.352;2023-04-24T10:57:28;0.80;;;0.63;;
18340;SDS011;9296;48.084;16.352;2023-04-24T11:00:10;0.55;;;0.50;;
18340;SDS011;9296;48.084;16.352;2023-04-24T11:02:38;0.70;;;0.70;;
18340;SDS011;9296;48.084;16.352;2023-04-24T11:05:13;1.35;;;0.85;;
18340;SDS011;9296;48.084;16.352;2023-04-24T11:16:21;0.88;;;0.65;;
18340;SDS011;9296;48.084;16.352;2023-04-24T11:18:59;0.77;;;0.60;;
18340;SDS011;9296;48.084;16.352;2023-04-24T11:21:30;0.63;;;0.63;;
18340;SDS011;9296;48.084;16.352;2023-04-24T11:23:57;0.63;;;0.55;;
18340;SDS011;9296;48.084;16.352;2023-04-24T11:32:25;0.77;;;0.50;;
18340;SDS011;9296;48.084;16.352;2023-04-24T11:34:53;1.23;;;0.60;;
18340;SDS011;9296;48.084;16.352;2023-04-24T11:37:21;2.00;;;0.57;;
18340;SDS011;9296;48.084;16.352;2023-04-24T11:40:07;0.65;;;0.65;;
18340;SDS011;9296;48.084;16.352;2023-04-24T11:42:35;1.17;;;0.60;;
18340;SDS011;9296;48.084;16.352;2023-04-24T11:45:06;1.23;;;0.70;;
18340;SDS011;9296;48.084;16.352;2023-04-24T11:47:35;0.90;;;0.60;;
18340;SDS011;9296;48.084;16.352;2023-04-24T11:50:03;0.73;;;0.60;;
18340;SDS011;9296;48.084;16.352;2023-04-24T11:52:31;0.73;;;0.70;;
18340;SDS011;9296;48.084;16.352;2023-04-24T11:57:59;2.00;;;0.85;;
18340;SDS011;9296;48.084;16.352;2023-04-24T12:00:27;1.15;;;0.80;;
18340;SDS011;9296;48.084;16.352;2023-04-24T12:03:04;1.75;;;0.70;;
18340;SDS011;9296;48.084;16.352;2023-04-24T12:05:32;0.95;;;0.60;;
18340;SDS011;9296;48.084;16.352;2023-04-24T12:08:00;1.00;;;0.60;;
18340;SDS011;9296;48.084;16.352;2023-04-24T12:13:30;1.38;;;0.80;;
18340;SDS011;9296;48.084;16.352;2023-04-24T12:15:58;0.82;;;0.80;;
18340;SDS011;9296;48.084;16.352;2023-04-24T12:18:26;0.90;;;0.80;;
18340;SDS011;9296;48.084;16.352;2023-04-24T12:20:54;1.67;;;0.70;;
18340;SDS011;9296;48.084;16.352;2023-04-24T12:23:33;1.33;;;0.90;;
18340;SDS011;9296;48.084;16.352;2023-04-24T12:26:00;2.58;;;0.60;;
18340;SDS011;9296;48.084;16.352;2023-04-24T12:28:34;1.05;;;0.90;;
18340;SDS011;9296;48.084;16.352;2023-04-24T12:31:01;2.65;;;0.80;;
18340;SDS011;9296;48.084;16.352;2023-04-24T12:33:33;0.70;;;0.70;;
18340;SDS011;9296;48.084;16.352;2023-04-24T12:36:01;1.15;;;0.90;;
18340;SDS011;9296;48.084;16.352;2023-04-24T12:38:28;0.70;;;0.70;;
18340;SDS011;9296;48.084;16.352;2023-04-24T12:41:02;0.60;;;0.60;;
18340;SDS011;9296;48.084;16.352;2023-04-24T12:43:30;2.30;;;0.85;;
18340;SDS011;9296;48.084;16.352;2023-04-24T12:45:57;0.80;;;0.70;;
18340;SDS011;9296;48.084;16.352;2023-04-24T12:48:25;1.15;;;0.75;;
18340;SDS011;9296;48.084;16.352;2023-04-24T12:50:53;1.75;;;1.00;;
18340;SDS011;9296;48.084;16.352;2023-04-24T12:53:21;0.85;;;0.80;;
18340;SDS011;9296;48.084;16.352;2023-04-24T12:56:09;1.45;;;0.70;;
18340;SDS011;9296;48.084;16.352;2023-04-24T12:58:37;3.70;;;0.95;;
18340;SDS011;9296;48.084;16.352;2023-04-24T13:01:04;1.10;;;0.90;;
18340;SDS011;9296;48.084;16.352;2023-04-24T13:03:31;3.20;;;1.10;;
18340;SDS011;9296;48.084;16.352;2023-04-24T13:06:00;2.95;;;1.20;;
18340;SDS011;9296;48.084;16.352;2023-04-24T13:08:27;2.88;;;1.10;;
18340;SDS011;9296;48.084;16.352;2023-04-24T13:17:01;4.72;;;1.67;;
18340;SDS011;9296;48.084;16.352;2023-04-24T13:19:29;2.53;;;1.27;;
18340;SDS011;9296;48.084;16.352;2023-04-24T13:21:57;4.25;;;1.50;;
18340;SDS011;9296;48.084;16.352;2023-04-24T13:24:25;1.20;;;1.00;;
18340;SDS011;9296;48.084;16.352;2023-04-24T13:29:55;1.05;;;0.70;;
18340;SDS011;9296;48.084;16.352;2023-04-24T13:32:23;0.82;;;0.70;;
18340;SDS011;9296;48.084;16.352;2023-04-24T13:34:50;0.90;;;0.75;;
18340;SDS011;9296;48.084;16.352;2023-04-24T13:37:18;1.88;;;0.82;;
18340;SDS011;9296;48.084;16.352;2023-04-24T13:42:48;1.15;;;0.90;;
18340;SDS011;9296;48.084;16.352;2023-04-24T13:45:15;3.83;;;1.00;;
18340;SDS011;9296;48.084;16.352;2023-04-24T13:47:42;1.50;;;0.73;;
18340;SDS011;9296;48.084;16.352;2023-04-24T13:50:10;1.77;;;0.93;;
18340;SDS011;9296;48.084;16.352;2023-04-24T13:52:39;1.17;;;0.90;;
18340;SDS011;9296;48.084;16.352;2023-04-24T13:55:06;1.38;;;0.98;;
18340;SDS011;9296;48.084;16.352;2023-04-24T13:57:33;0.68;;;0.68;;
18340;SDS011;9296;48.084;16.352;2023-04-24T14:00:02;0.57;;;0.50;;
18340;SDS011;9296;48.084;16.352;2023-04-24T14:02:29;0.80;;;0.60;;
18340;SDS011;9296;48.084;16.352;2023-04-24T14:04:56;0.82;;;0.68;;
18340;SDS011;9296;48.084;16.352;2023-04-24T14:07:23;0.95;;;0.68;;
18340;SDS011;9296;48.084;16.352;2023-04-24T14:09:52;0.68;;;0.50;;
18340;SDS011;9296;48.084;16.352;2023-04-24T14:12:19;0.70;;;0.60;;
18340;SDS011;9296;48.084;16.352;2023-04-24T14:14:46;0.50;;;0.50;;
18340;SDS011;9296;48.084;16.352;2023-04-24T14:17:14;1.20;;;0.70;;
18340;SDS011;9296;48.084;16.352;2023-04-24T14:19:41;0.82;;;0.65;;
18340;SDS011;9296;48.084;16.352;2023-04-24T14:22:09;0.63;;;0.63;;
18340;SDS011;9296;48.084;16.352;2023-04-24T14:24:36;0.70;;;0.60;;
18340;SDS011;9296;48.084;16.352;2023-04-24T14:27:05;0.65;;;0.65;;
18340;SDS011;9296;48.084;16.352;2023-04-24T14:29:32;0.85;;;0.80;;
18340;SDS011;9296;48.084;16.352;2023-04-24T14:31:59;1.45;;;0.88;;
18340;SDS011;9296;48.084;16.352;2023-04-24T14:34:26;1.08;;;0.73;;
18340;SDS011;9296;48.084;16.352;2023-04-24T14:36:53;1.67;;;0.88;;
18340;SDS011;9296;48.084;16.352;2023-04-24T14:39:20;0.85;;;0.70;;
18340;SDS011;9296;48.084;16.352;2023-04-24T14:42:08;1.58;;;0.90;;
18340;SDS011;9296;48.084;16.352;2023-04-24T14:44:35;1.60;;;0.90;;
18340;SDS011;9296;48.084;16.352;2023-04-24T14:47:02;2.45;;;0.85;;
18340;SDS011;9296;48.084;16.352;2023-04-24T14:49:29;1.27;;;1.00;;
18340;SDS011;9296;48.084;16.352;2023-04-24T14:51:56;1.50;;;0.98;;
18340;SDS011;9296;48.084;16.352;2023-04-24T14:54:23;1.25;;;1.08;;
18340;SDS011;9296;48.084;16.352;2023-04-24T14:59:38;1.77;;;1.10;;
18340;SDS011;9296;48.084;16.352;2023-04-24T15:02:06;1.67;;;1.00;;
18340;SDS011;9296;48.084;16.352;2023-04-24T15:04:33;2.05;;;0.90;;
18340;SDS011;9296;48.084;16.352;2023-04-24T15:07:00;1.92;;;1.23;;
18340;SDS011;9296;48.084;16.352;2023-04-24T15:09:27;2.78;;;1.20;;
18340;SDS011;9296;48.084;16.352;2023-04-24T15:15:01;3.97;;;1.30;;
18340;SDS011;9296;48.084;16.352;2023-04-24T15:17:28;1.38;;;1.20;;
18340;SDS011;9296;48.084;16.352;2023-04-24T15:19:55;1.33;;;1.10;;
18340;SDS011;9296;48.084;16.352;2023-04-24T15:22:23;2.25;;;1.50;;
18340;SDS011;9296;48.084;16.352;2023-04-24T15:24:50;2.35;;;1.70;;
18340;SDS011;9296;48.084;16.352;2023-04-24T15:27:17;4.03;;;1.52;;
18340;SDS011;9296;48.084;16.352;2023-04-24T15:29:44;1.88;;;1.48;;
18340;SDS011;9296;48.084;16.352;2023-04-24T15:32:13;2.72;;;1.20;;
18340;SDS011;9296;48.084;16.352;2023-04-24T15:34:40;3.97;;;1.50;;
18340;SDS011;9296;48.084;16.352;2023-04-24T15:37:07;3.30;;;2.05;;
18340;SDS011;9296;48.084;16.352;2023-04-24T15:39:34;3.83;;;1.52;;
18340;SDS011;9296;48.084;16.352;2023-04-24T15:42:02;2.13;;;1.00;;
18340;SDS011;9296;48.084;16.352;2023-04-24T15:44:29;2.83;;;1.00;;
18340;SDS011;9296;48.084;16.352;2023-04-24T15:46:56;1.70;;;1.00;;
18340;SDS011;9296;48.084;16.352;2023-04-24T15:49:27;2.20;;;0.88;;
18340;SDS011;9296;48.084;16.352;2023-04-24T15:51:54;1.38;;;0.80;;
18340;SDS011;9296;48.084;16.352;2023-04-24T15:54:22;4.00;;;1.02;;
18340;SDS011;9296;48.084;16.352;2023-04-24T15:59:52;1.70;;;1.30;;
18340;SDS011;9296;48.084;16.352;2023-04-24T16:02:20;1.65;;;1.10;;
18340;SDS011;9296;48.084;16.352;2023-04-24T16:04:49;1.13;;;0.90;;
18340;SDS011;9296;48.084;16.352;2023-04-24T16:07:17;1.27;;;0.85;;
18340;SDS011;9296;48.084;16.352;2023-04-24T16:09:44;1.67;;;0.63;;
18340;SDS011;9296;48.084;16.352;2023-04-24T16:15:15;0.82;;;0.57;;
18340;SDS011;9296;48.084;16.352;2023-04-24T16:17:42;1.40;;;0.80;;
18340;SDS011;9296;48.084;16.352;2023-04-24T16:20:11;1.13;;;0.70;;
18340;SDS011;9296;48.084;16.352;2023-04-24T16:22:39;0.82;;;0.73;;
18340;SDS011;9296;48.084;16.352;2023-04-24T16:25:06;1.13;;;0.80;;
18340;SDS011;9296;48.084;16.352;2023-04-24T16:27:34;0.80;;;0.70;;
18340;SDS011;9296;48.084;16.352;2023-04-24T16:30:03;2.38;;;0.80;;
18340;SDS011;9296;48.084;16.352;2023-04-24T16:32:30;1.42;;;0.98;;
18340;SDS011;9296;48.084;16.352;2023-04-24T16:35:01;3.08;;;1.30;;
18340;SDS011;9296;48.084;16.352;2023-04-24T16:37:46;2.33;;;1.40;;
18340;SDS011;9296;48.084;16.352;2023-04-24T16:40:13;2.42;;;1.60;;
18340;SDS011;9296;48.084;16.352;2023-04-24T16:45:44;4.85;;;1.70;;
18340;SDS011;9296;48.084;16.352;2023-04-24T16:48:11;2.78;;;1.33;;
18340;SDS011;9296;48.084;16.352;2023-04-24T16:50:39;1.52;;;1.05;;
18340;SDS011;9296;48.084;16.352;2023-04-24T16:53:07;4.00;;;1.52;;
18340;SDS011;9296;48.084;16.352;2023-04-24T16:55:34;1.42;;;1.02;;